Date,TemperatureHighF,TemperatureAvgF,TemperatureLowF,DewpointHighF,DewpointAvgF,DewpointLowF,HumidityHigh,HumidityAvg,HumidityLow,PressureMaxIn,PressureMinIn,WindSpeedMaxMPH,WindSpeedAvgMPH,GustSpeedMaxMPH,PrecipitationSumIn
2013-6-19,85,85,85,-100,-100,-100,0,0,100,0.00,40.00,0,-999,0,0.00
2013-6-25,89,89,89,-100,-100,-100,0,0,100,0.00,40.00,0,-999,0,0.00
2013-6-28,90,90,90,-100,-100,-100,0,0,100,0.00,40.00,0,-999,0,0.00
2013-7-2,90,90,90,-100,-100,-100,0,0,100,0.00,40.00,0,-999,0,0.00
2013-7-3,84,84,84,-100,-100,-100,0,0,100,0.00,40.00,0,-999,0,0.00
2013-7-8,85,85,85,-100,-100,-100,0,0,100,0.00,40.00,0,-999,0,0.00
2013-7-19,86,86,86,-100,-100,-100,0,0,100,0.00,40.00,0,-999,0,0.00
2013-7-24,89,89,89,-100,-100,-100,0,0,100,0.00,40.00,0,-999,0,0.00
2013-8-1,90,90,90,-100,-100,-100,0,0,100,0.00,40.00,0,-999,0,0.00
2013-8-12,87,85,84,-100,-100,-100,0,0,100,0.00,40.00,0,-999,0,0.00
2013-8-13,92,84,82,-100,-100,-100,0,0,100,0.00,40.00,0,-999,0,0.00
2013-8-14,93,85,82,-100,-100,-100,0,0,100,0.00,40.00,0,-999,0,0.00
2013-8-15,89,84,80,-100,-100,-100,0,0,100,0.00,40.00,0,-999,0,0.00
2013-8-16,90,86,83,-100,-100,-100,0,0,100,0.00,40.00,0,-999,0,0.00
2013-8-17,91,83,78,-100,-100,-100,0,0,100,0.00,40.00,0,-999,0,0.00
2013-8-18,88,83,80,-100,-100,-100,0,0,100,0.00,40.00,0,-999,0,0.00
2013-8-19,88,82,78,-100,-100,-100,0,0,100,0.00,40.00,0,-999,0,0.00
2013-8-20,82,82,81,-100,-100,-100,0,0,100,0.00,40.00,0,-999,0,0.00
2013-8-21,88,85,82,-100,-100,-100,0,0,100,0.00,40.00,0,-999,0,0.00
2013-8-22,88,85,82,-100,-100,-100,0,0,100,0.00,40.00,0,-999,0,0.00
2013-8-23,88,85,82,-100,-100,-100,0,0,100,0.00,40.00,0,-999,0,0.00
2013-8-24,90,85,83,-100,-100,-100,0,0,100,0.00,40.00,0,-999,0,0.00
2013-8-25,89,85,81,-100,-100,-100,0,0,100,0.00,40.00,0,-999,0,0.00
2013-8-26,84,82,80,-100,-100,-100,0,0,100,0.00,40.00,0,-999,0,0.00
2013-8-27,87,84,82,-100,-100,-100,0,0,100,0.00,40.00,0,-999,0,0.00
2013-8-28,88,87,85,-100,-100,-100,0,0,100,0.00,40.00,0,-999,0,0.00
2013-8-29,90,85,82,-100,-100,-100,0,0,100,0.00,40.00,0,-999,0,0.00
2013-8-30,89,84,80,-100,-100,-100,0,0,100,0.00,40.00,0,-999,0,0.00
2013-8-31,88,83,78,-100,-100,-100,0,0,100,0.00,40.00,0,-999,0,0.00
2013-9-1,90,84,80,-100,-100,-100,0,0,100,0.00,40.00,0,-999,0,0.00
2013-9-2,90,87,84,-100,-100,-100,0,0,100,0.00,40.00,0,-999,0,0.00
2013-9-3,89,84,81,-100,-100,-100,0,0,100,0.00,40.00,0,-999,0,0.00
2013-9-4,89,84,80,-100,-100,-100,0,0,100,0.00,40.00,0,-999,0,0.00
2013-9-5,85,84,83,-100,-100,-100,0,0,100,0.00,40.00,0,-999,0,0.00
2013-9-6,88,84,80,-100,-100,-100,0,0,100,0.00,40.00,0,-999,0,0.00
2013-9-7,85,83,81,-100,-100,-100,0,0,100,0.00,40.00,0,-999,0,0.00
2013-9-8,83,82,79,-100,-100,-100,0,0,100,0.00,40.00,0,-999,0,0.00
2013-9-9,83,82,81,-100,-100,-100,0,0,100,0.00,40.00,0,-999,0,0.00
2013-9-10,83,81,78,-100,-100,-100,0,0,100,0.00,40.00,0,-999,0,0.00
2013-9-11,87,83,81,-100,-100,-100,0,0,100,0.00,40.00,0,-999,0,0.00
2013-9-12,84,82,81,-100,-100,-100,0,0,100,0.00,40.00,0,-999,0,0.00
2013-9-30,85,85,85,-100,-100,-100,0,0,100,0.00,40.00,0,-999,0,0.00
2013-10-8,77,77,77,-100,-100,-100,0,0,100,0.00,40.00,0,-999,0,0.00
2013-10-12,84,84,84,-100,-100,-100,0,0,100,0.00,40.00,0,-999,0,0.00
2013-10-21,80,80,80,-100,-100,-100,0,0,100,0.00,40.00,0,-999,0,0.00
2013-10-23,71,71,71,-100,-100,-100,0,0,100,0.00,40.00,0,-999,0,0.00
2013-11-14,65,65,65,-100,-100,-100,0,0,100,0.00,40.00,0,-999,0,0.00
2013-12-2,76,76,76,-100,-100,-100,0,0,100,0.00,40.00,0,-999,0,0.00
2013-12-11,54,54,54,-100,-100,-100,0,0,100,0.00,40.00,0,-999,0,0.00
2013-12-20,78,78,78,-100,-100,-100,0,0,100,0.00,40.00,0,-999,0,0.00